.
WxDataArchive / Data Records for 2013-01-31
2013-01-30 January 2013 2013-02-01

Data Records for Thursday, 31 January 2013

Time	Temp	Chill	HIndex	Humid	Dewpt	 Wind 	HiWind	WindDir	Rain 	Barom 
-----	----	-----	------	-----	-----	------	------	-------	-----	----- 
00:00	29.8	24.5	29.8	77	23.5	5	10	270	0.00	29.443 
00:05	29.8	25.5	29.8	78	23.8	4	10	270	0.00	29.443 
00:10	29.8	25.5	29.8	79	24.1	4	10	270	0.00	29.443 
00:15	29.8	29.8	29.8	80	24.4	3	6	248	0.00	29.450 
00:20	29.7	25.4	29.7	81	24.6	4	12	270	0.00	29.450 
00:25	29.7	24.4	29.7	81	24.6	5	11	270	0.00	29.450 
00:30	29.4	24.0	29.4	80	24.0	5	13	270	0.00	29.459 
00:35	29.1	24.7	29.1	81	24.0	4	7	270	0.00	29.459 
00:40	29.0	29.0	29.0	80	23.6	3	9	248	0.00	29.459 
00:45	29.1	22.8	29.1	79	23.4	6	12	270	0.00	29.474 
00:50	29.1	23.7	29.1	78	23.1	5	10	270	0.00	29.474 
00:55	29.0	23.6	29.0	77	22.7	5	10	270	0.00	29.474 
01:00	29.0	24.6	29.0	78	23.0	4	9	270	0.00	29.482 
01:05	29.0	29.0	29.0	79	23.3	3	9	248	0.00	29.482 
01:10	28.7	23.2	28.7	80	23.3	5	9	248	0.00	29.482 
01:15	28.2	22.6	28.2	81	23.1	5	11	270	0.00	29.492 
01:20	28.1	22.5	28.1	81	23.0	5	13	270	0.00	29.492 
01:25	27.9	23.3	27.9	81	22.8	4	10	270	0.00	29.492 
01:30	27.8	23.2	27.8	81	22.7	4	10	248	0.00	29.504 
01:35	27.5	21.8	27.5	81	22.4	5	12	270	0.00	29.504 
01:40	27.3	22.6	27.3	81	22.3	4	10	270	0.00	29.504 
01:45	27.0	21.2	27.0	81	22.0	5	10	270	0.00	29.522 
01:50	26.9	21.1	26.9	79	21.3	5	11	270	0.00	29.522 
01:55	26.6	20.7	26.6	77	20.4	5	12	270	0.00	29.522 
02:00	26.6	19.8	26.6	75	19.8	6	11	270	0.00	29.536 
02:05	26.4	19.6	26.4	74	19.3	6	15	270	0.00	29.536 
02:10	26.3	20.4	26.3	73	18.8	5	10	270	0.00	29.536 
02:15	26.3	20.4	26.3	72	18.5	5	12	270	0.00	29.541 
02:20	26.1	19.2	26.1	72	18.3	6	15	270	0.00	29.541 
02:25	26.1	20.1	26.1	72	18.3	5	10	270	0.00	29.541 
02:30	26.1	21.3	26.1	73	18.7	4	11	248	0.00	29.556 
02:35	26.0	19.1	26.0	70	17.6	6	12	270	0.00	29.556 
02:40	25.8	19.8	25.8	70	17.4	5	13	270	0.00	29.556 
02:45	25.8	19.8	25.8	69	17.1	5	15	270	0.00	29.563 
02:50	25.7	18.7	25.7	68	16.6	6	10	270	0.00	29.563 
02:55	25.6	20.7	25.6	69	16.9	4	13	292	0.00	29.563 
03:00	25.4	20.5	25.4	71	17.3	4	10	270	0.00	29.575 
03:05	25.3	20.3	25.3	72	17.6	4	12	270	0.00	29.575 
03:10	25.3	20.3	25.3	74	18.2	4	9	270	0.00	29.575 
03:15	25.0	20.0	25.0	76	18.5	4	11	248	0.00	29.585 
03:20	24.5	24.5	24.5	78	18.6	3	9	248	0.00	29.585 
03:25	24.2	17.9	24.2	79	18.6	5	10	248	0.00	29.585 
03:30	24.1	16.8	24.1	78	18.3	6	14	270	0.00	29.593 
03:35	23.9	17.6	23.9	77	17.8	5	10	270	0.00	29.593 
03:40	23.9	18.7	23.9	77	17.8	4	9	248	0.00	29.593 
03:45	23.8	17.4	23.8	75	17.1	5	11	270	0.00	29.595 
03:50	23.8	18.6	23.8	74	16.7	4	11	270	0.00	29.595 
03:55	23.8	18.6	23.8	73	16.4	4	9	248	0.00	29.595 
04:00	23.6	17.2	23.6	72	15.9	5	11	270	0.00	29.603 
04:05	23.6	17.2	23.6	71	15.6	5	12	270	0.00	29.603 
04:10	23.5	17.1	23.5	71	15.5	5	11	270	0.00	29.603 
04:15	23.5	16.1	23.5	70	15.2	6	13	270	0.00	29.615 
04:20	23.3	16.9	23.3	70	15.0	5	11	270	0.00	29.615 
04:25	23.3	16.9	23.3	70	15.0	5	10	248	0.00	29.615 
04:30	23.2	16.7	23.2	70	14.9	5	14	270	0.00	29.626 
04:35	23.2	16.7	23.2	70	14.9	5	13	270	0.00	29.626 
04:40	23.2	16.7	23.2	70	14.9	5	13	270	0.00	29.626 
04:45	23.2	17.9	23.2	72	15.5	4	11	270	0.00	29.628 
04:50	23.2	17.9	23.2	73	15.9	4	12	248	0.00	29.628 
04:55	22.9	16.4	22.9	73	15.6	5	15	270	0.00	29.628 
05:00	22.7	17.3	22.7	73	15.4	4	12	248	0.00	29.641 
05:05	22.5	15.9	22.5	74	15.5	5	12	248	0.00	29.641 
05:10	22.4	15.8	22.4	74	15.4	5	12	270	0.00	29.641 
05:15	22.4	15.8	22.4	73	15.1	5	12	270	0.00	29.648 
05:20	22.4	17.0	22.4	73	15.1	4	11	248	0.00	29.648 
05:25	22.4	17.0	22.4	73	15.1	4	9	248	0.00	29.648 
05:30	22.4	17.0	22.4	72	14.8	4	11	248	0.00	29.657 
05:35	22.4	17.0	22.4	73	15.1	4	9	248	0.00	29.657 
05:40	22.2	22.2	22.2	76	15.8	3	9	248	0.00	29.657 
05:45	21.9	21.9	21.9	77	15.8	3	7	248	0.00	29.665 
05:50	21.8	16.3	21.8	79	16.3	4	9	248	0.00	29.665 
05:55	21.4	15.8	21.4	80	16.2	4	10	248	0.00	29.665 
06:00	21.3	21.3	21.3	80	16.1	3	5	270	0.00	29.675 
06:05	21.0	15.4	21.0	79	15.5	4	7	270	0.00	29.675 
06:10	21.0	15.4	21.0	79	15.5	4	9	248	0.00	29.675 
06:15	20.6	13.7	20.6	79	15.1	5	13	248	0.00	29.680 
06:20	20.5	14.8	20.5	78	14.8	4	15	248	0.00	29.680 
06:25	20.3	14.6	20.3	78	14.6	4	12	248	0.00	29.680 
06:30	20.0	14.2	20.0	76	13.7	4	11	248	0.00	29.684 
06:35	19.9	12.9	19.9	74	13.0	5	9	248	0.00	29.684 
06:40	19.9	12.9	19.9	74	13.0	5	14	270	0.00	29.684 
06:45	19.7	12.6	19.7	73	12.5	5	11	248	0.00	29.695 
06:50	19.5	13.6	19.5	73	12.3	4	11	270	0.00	29.695 
06:55	19.4	11.2	19.4	73	12.2	6	13	248	0.00	29.695 
07:00	19.4	13.5	19.4	73	12.2	4	12	248	0.00	29.702 
07:05	19.4	12.3	19.4	73	12.2	5	12	248	0.00	29.702 
07:10	19.4	12.3	19.4	73	12.2	5	14	248	0.00	29.702 
07:15	19.2	11.0	19.2	72	11.7	6	12	270	0.00	29.717 
07:20	19.2	13.3	19.2	71	11.4	4	9	270	0.00	29.717 
07:25	19.2	19.2	19.2	69	10.7	3	11	248	0.00	29.717 
07:30	19.2	12.0	19.2	67	10.1	5	14	270	0.00	29.726 
07:35	19.2	13.3	19.2	66	9.7	4	7	270	0.00	29.726 
07:40	19.2	13.3	19.2	66	9.7	4	9	248	0.00	29.726 
07:45	19.2	12.0	19.2	65	9.4	5	11	270	0.00	29.733 
07:50	19.2	12.0	19.2	64	9.0	5	10	270	0.00	29.733 
07:55	19.2	11.0	19.2	63	8.7	6	15	270	0.00	29.733 
08:00	19.2	13.3	19.2	63	8.7	4	7	270	0.00	29.735 
08:05	19.2	13.3	19.2	63	8.7	4	10	270	0.00	29.735 
08:10	19.2	13.3	19.2	62	8.3	4	9	270	0.00	29.735 
08:15	19.2	12.0	19.2	62	8.3	5	13	270	0.00	29.749 
08:20	19.4	13.5	19.4	62	8.5	4	10	270	0.00	29.749 
08:25	19.4	13.5	19.4	64	9.2	4	8	270	0.00	29.749 
08:30	19.2	13.3	19.2	65	9.4	4	10	270	0.00	29.756 
08:35	19.2	19.2	19.2	66	9.7	2	6	248	0.00	29.756 
08:40	19.1	19.1	19.1	69	10.6	3	9	270	0.00	29.756 
08:45	19.1	19.1	19.1	73	11.9	3	7	270	0.00	29.767 
08:50	18.8	18.8	18.8	75	12.2	3	6	248	0.00	29.767 
08:55	18.4	12.4	18.4	78	12.7	4	12	248	0.00	29.767 
09:00	17.8	11.7	17.8	80	12.7	4	9	248	0.00	29.777 
09:05	17.7	17.7	17.7	82	13.2	3	5	248	0.00	29.777 
09:10	17.7	17.7	17.7	83	13.4	3	6	248	0.00	29.777 
09:15	17.7	17.7	17.7	83	13.4	3	6	248	0.00	29.787 
09:20	17.7	17.7	17.7	83	13.4	3	7	248	0.00	29.787 
09:25	17.7	17.7	17.7	83	13.4	3	6	270	0.00	29.787 
09:30	17.8	11.7	17.8	83	13.5	4	10	248	0.00	29.798 
09:35	17.7	11.6	17.7	81	12.9	4	9	270	0.00	29.798 
09:40	17.7	17.7	17.7	80	12.6	3	6	270	0.00	29.798 
09:45	18.0	18.0	18.0	79	12.6	2	6	248	0.00	29.801 
09:50	18.1	18.1	18.1	78	12.4	3	9	292	0.00	29.801 
09:55	18.3	12.3	18.3	76	12.0	4	10	248	0.00	29.801 
10:00	18.4	12.4	18.4	74	11.5	4	7	270	0.00	29.804 
10:05	18.6	12.6	18.6	73	11.4	4	7	270	0.00	29.804 
10:10	18.8	12.8	18.8	71	11.0	4	12	248	0.00	29.804 
10:15	19.1	19.1	19.1	71	11.3	3	7	270	0.00	29.816 
10:20	19.2	19.2	19.2	70	11.0	3	6	248	0.00	29.816 
10:25	19.5	13.6	19.5	69	11.0	4	9	248	0.00	29.816 
10:30	19.7	19.7	19.7	68	10.9	3	6	248	0.00	29.816 
10:35	19.9	14.1	19.9	67	10.7	4	10	270	0.00	29.816 
10:40	20.2	20.2	20.2	67	11.0	3	9	248	0.00	29.816 
10:45	20.3	20.3	20.3	66	10.8	3	7	270	0.00	29.819 
10:50	20.5	20.5	20.5	67	11.3	3	6	248	0.00	29.819 
10:55	20.5	14.8	20.5	67	11.3	4	11	270	0.00	29.819 
11:00	20.3	14.6	20.3	69	11.8	4	6	248	0.00	29.830 
11:05	20.3	20.3	20.3	70	12.1	3	5	270	0.00	29.830 
11:10	20.5	20.5	20.5	71	12.6	3	7	270	0.00	29.830 
11:15	20.8	20.8	20.8	72	13.2	2	7	270	0.00	29.831 
11:20	21.0	21.0	21.0	73	13.7	3	7	270	0.00	29.831 
11:25	21.3	21.3	21.3	73	14.0	3	9	225	0.00	29.831 
11:30	21.3	15.7	21.3	73	14.0	4	10	270	0.00	29.832 
11:35	21.4	21.4	21.4	73	14.1	3	9	248	0.00	29.832 
11:40	21.8	21.8	21.8	74	14.8	2	5	248	0.00	29.832 
11:45	22.1	16.6	22.1	73	14.8	4	9	270	0.00	29.830 
11:50	22.5	22.5	22.5	73	15.2	3	9	248	0.00	29.830 
11:55	23.0	23.0	23.0	73	15.7	2	6	270	0.00	29.830 
12:00	23.2	23.2	23.2	73	15.9	2	7	248	0.00	29.828 
12:05	23.2	23.2	23.2	72	15.5	3	6	248	0.00	29.828 
12:10	22.9	17.6	22.9	72	15.2	4	10	248	0.00	29.828 
12:15	22.9	22.9	22.9	73	15.6	3	7	248	0.00	29.827 
12:20	22.9	22.9	22.9	74	15.9	3	8	248	0.00	29.827 
12:25	22.7	22.7	22.7	76	16.3	3	10	248	0.00	29.827 
12:30	22.7	17.3	22.7	75	16.0	4	10	248	0.00	29.826 
12:35	22.9	22.9	22.9	74	15.9	3	9	270	0.00	29.826 
12:40	22.9	17.6	22.9	73	15.6	4	9	248	0.00	29.826 
12:45	22.9	17.6	22.9	71	14.9	4	7	270	0.00	29.822 
12:50	23.2	23.2	23.2	71	15.2	3	6	248	0.00	29.822 
12:55	23.5	17.1	23.5	67	14.2	5	10	248	0.00	29.822 
13:00	23.6	18.4	23.6	65	13.6	4	13	270	0.00	29.822 
13:05	23.8	18.6	23.8	64	13.4	4	12	248	0.00	29.822 
13:10	23.9	17.6	23.9	62	12.8	5	13	248	0.00	29.822 
13:15	23.8	16.5	23.8	59	11.6	6	12	270	0.00	29.827 
13:20	23.9	18.7	23.9	60	12.1	4	8	270	0.00	29.827 
13:25	24.1	17.8	24.1	59	11.9	5	10	248	0.00	29.827 
13:30	24.2	19.1	24.2	60	12.3	4	7	248	0.00	29.820 
13:35	24.5	19.4	24.5	60	12.6	4	11	248	0.00	29.820 
13:40	24.5	18.3	24.5	59	12.3	5	12	248	0.00	29.820 
13:45	24.4	24.4	24.4	60	12.5	3	10	248	0.00	29.822 
13:50	24.4	19.3	24.4	60	12.5	4	9	248	0.00	29.822 
13:55	23.9	17.6	23.9	59	11.7	5	13	248	0.00	29.822 
14:00	23.6	18.4	23.6	61	12.2	4	10	270	0.00	29.831 
14:05	23.6	18.4	23.6	61	12.2	4	11	248	0.00	29.831 
14:10	23.6	18.4	23.6	62	12.5	4	10	248	0.00	29.831 
14:15	23.6	18.4	23.6	64	13.2	4	10	248	0.00	29.837 
14:20	23.5	18.3	23.5	63	12.8	4	11	248	0.00	29.837 
14:25	23.2	16.7	23.2	61	11.8	5	15	248	0.00	29.837 
14:30	22.9	17.6	22.9	58	10.4	4	10	270	0.00	29.839 
14:35	22.5	15.9	22.5	58	10.0	5	11	270	0.00	29.839 
14:40	22.5	17.1	22.5	61	11.1	4	13	270	0.00	29.839 
14:45	22.5	22.5	22.5	62	11.5	3	11	270	0.00	29.849 
14:50	22.5	17.1	22.5	62	11.5	4	11	270	0.00	29.849 
14:55	22.4	22.4	22.4	62	11.4	3	9	270	0.00	29.849 
15:00	22.2	16.8	22.2	61	10.8	4	7	270	0.00	29.852 
15:05	22.1	16.6	22.1	61	10.7	4	11	270	0.00	29.852 
15:10	22.1	16.6	22.1	61	10.7	4	11	248	0.00	29.852 
15:15	22.1	16.6	22.1	61	10.7	4	10	270	0.00	29.854 
15:20	21.9	15.2	21.9	59	9.8	5	10	248	0.00	29.854 
15:25	21.9	15.2	21.9	57	9.0	5	11	270	0.00	29.854 
15:30	22.2	16.8	22.2	58	9.7	4	9	270	0.00	29.853 
15:35	22.1	16.6	22.1	58	9.6	4	9	270	0.00	29.853 
15:40	22.1	16.6	22.1	59	10.0	4	11	270	0.00	29.853 
15:45	21.9	15.2	21.9	60	10.2	5	11	270	0.00	29.867 
15:50	21.9	16.4	21.9	61	10.5	4	7	270	0.00	29.867 
15:55	21.8	16.3	21.8	61	10.4	4	10	270	0.00	29.867 
16:00	21.6	16.1	21.6	61	10.3	4	11	270	0.00	29.865 
16:05	21.6	21.6	21.6	61	10.3	3	6	248	0.00	29.865 
16:10	21.6	21.6	21.6	59	9.5	3	4	248	0.00	29.865 
16:15	21.4	21.4	21.4	59	9.3	3	9	270	0.00	29.867 
16:20	21.1	14.3	21.1	58	8.7	5	12	270	0.00	29.867 
16:25	21.1	15.5	21.1	58	8.7	4	9	270	0.00	29.867 
16:30	21.1	21.1	21.1	58	8.7	3	6	270	0.00	29.870 
16:35	21.1	15.5	21.1	58	8.7	4	8	270	0.00	29.870 
16:40	20.8	13.9	20.8	56	7.6	5	14	270	0.00	29.870 
16:45	20.6	14.9	20.6	56	7.4	4	9	270	0.00	29.875 
16:50	20.5	14.8	20.5	56	7.3	4	9	270	0.00	29.875 
16:55	20.3	20.3	20.3	56	7.1	3	7	270	0.00	29.875 
17:00	20.2	20.2	20.2	56	7.0	3	6	270	0.00	29.880 
17:05	20.2	14.4	20.2	54	6.2	4	10	270	0.00	29.880 
17:10	20.2	14.4	20.2	54	6.2	4	10	270	0.00	29.880 
17:15	20.2	14.4	20.2	55	6.7	4	7	270	0.00	29.888 
17:20	20.0	20.0	20.0	57	7.2	3	7	270	0.00	29.888 
17:25	19.7	13.9	19.7	58	7.3	4	10	270	0.00	29.888 
17:30	19.5	19.5	19.5	59	7.5	3	6	270	0.00	29.891 
17:35	19.4	19.4	19.4	58	7.1	3	6	248	0.00	29.891 
17:40	19.4	13.5	19.4	58	7.1	4	6	270	0.00	29.891 
17:45	19.2	19.2	19.2	60	7.6	3	6	270	0.00	29.893 
17:50	18.9	18.9	18.9	64	8.8	3	7	270	0.00	29.893 
17:55	18.8	18.8	18.8	67	9.7	2	6	270	0.00	29.893 
18:00	18.6	18.6	18.6	67	9.5	3	5	270	0.00	29.903 
18:05	18.4	18.4	18.4	67	9.3	3	7	270	0.00	29.903 
18:10	18.3	18.3	18.3	66	8.9	3	7	270	0.00	29.903 
18:15	18.3	18.3	18.3	66	8.9	2	5	270	0.00	29.910 
18:20	18.1	18.1	18.1	68	9.3	3	8	270	0.00	29.910 
18:25	17.8	17.8	17.8	70	9.7	3	5	270	0.00	29.910 
18:30	17.7	17.7	17.7	71	9.9	2	5	292	0.00	29.921 
18:35	17.5	17.5	17.5	72	10.0	2	6	248	0.00	29.921 
18:40	17.2	17.2	17.2	73	10.1	2	4	270	0.00	29.921 
18:45	17.0	17.0	17.0	73	9.9	3	10	270	0.00	29.938 
18:50	16.9	16.9	16.9	72	9.5	3	7	248	0.00	29.938 
18:55	16.7	16.7	16.7	72	9.3	3	6	270	0.00	29.938 
19:00	16.7	16.7	16.7	73	9.6	2	5	270	0.00	29.944 
19:05	16.5	16.5	16.5	73	9.4	2	4	270	0.00	29.944 
19:10	16.5	16.5	16.5	72	9.1	3	6	270	0.00	29.944 
19:15	16.4	16.4	16.4	71	8.7	3	7	248	0.00	29.956 
19:20	16.4	16.4	16.4	70	8.4	2	6	315	0.00	29.956 
19:25	16.5	16.5	16.5	69	8.1	3	5	270	0.00	29.956 
19:30	16.5	16.5	16.5	68	7.8	3	7	270	0.00	29.959 
19:35	16.5	16.5	16.5	68	7.8	2	5	292	0.00	29.959 
19:40	16.5	16.5	16.5	67	7.5	3	6	270	0.00	29.959 
19:45	16.4	16.4	16.4	66	7.1	3	5	248	0.00	29.965 
19:50	16.2	16.2	16.2	63	5.9	3	5	248	0.00	29.965 
19:55	16.1	16.1	16.1	61	5.1	3	7	270	0.00	29.965 
20:00	16.1	9.7	16.1	59	4.3	4	9	270	0.00	29.972 
20:05	16.1	16.1	16.1	58	4.0	3	7	270	0.00	29.972 
20:10	16.1	16.1	16.1	57	3.6	3	6	248	0.00	29.972 
20:15	15.9	15.9	15.9	57	3.4	3	6	270	0.00	29.975 
20:20	15.7	15.7	15.7	57	3.2	2	7	248	0.00	29.975 
20:25	15.6	15.6	15.6	57	3.1	2	4	270	0.00	29.975 
20:30	15.6	15.6	15.6	57	3.1	3	6	270	0.00	29.976 
20:35	15.6	15.6	15.6	56	2.7	2	4	270	0.00	29.976 
20:40	15.6	15.6	15.6	57	3.1	3	5	248	0.00	29.976 
20:45	15.7	15.7	15.7	58	3.6	3	6	270	0.00	29.979 
20:50	15.7	15.7	15.7	59	4.0	2	5	248	0.00	29.979 
20:55	15.9	15.9	15.9	60	4.5	2	4	270	0.00	29.979 
21:00	15.9	15.9	15.9	62	5.2	2	4	270	0.00	29.981 
21:05	15.7	15.7	15.7	63	5.4	2	5	270	0.00	29.981 
21:10	15.6	15.6	15.6	64	5.6	3	9	270	0.00	29.981 
21:15	15.4	8.9	15.4	62	4.7	4	9	270	0.00	29.989 
21:20	15.2	15.2	15.2	62	4.6	3	7	270	0.00	29.989 
21:25	15.1	8.6	15.1	61	4.1	4	6	270	0.00	29.989 
21:30	14.8	14.8	14.8	61	3.8	3	6	270	0.00	29.991 
21:35	14.6	14.6	14.6	61	3.6	3	7	270	0.00	29.991 
21:40	14.4	14.4	14.4	61	3.4	2	5	270	0.00	29.991 
21:45	14.3	14.3	14.3	61	3.3	3	9	270	0.00	29.992 
21:50	14.1	14.1	14.1	62	3.5	3	6	270	0.00	29.992 
21:55	14.0	14.0	14.0	63	3.8	3	5	270	0.00	29.992 
22:00	13.8	13.8	13.8	64	3.9	2	6	270	0.00	30.004 
22:05	13.8	13.8	13.8	65	4.2	2	5	270	0.00	30.004 
22:10	13.6	13.6	13.6	65	4.1	2	6	270	0.00	30.004 
22:15	13.5	13.5	13.5	66	4.3	2	4	270	0.00	30.004 
22:20	13.5	13.5	13.5	66	4.3	2	5	270	0.00	30.004 
22:25	13.5	13.5	13.5	67	4.6	2	9	248	0.00	30.004 
22:30	13.5	13.5	13.5	68	4.9	2	6	270	0.00	30.007 
22:35	13.6	13.6	13.6	69	5.4	2	6	270	0.00	30.007 
22:40	13.6	13.6	13.6	69	5.4	2	5	248	0.00	30.007 
22:45	13.6	13.6	13.6	70	5.7	2	6	248	0.00	30.008 
22:50	13.5	13.5	13.5	69	5.3	2	6	292	0.00	30.008 
22:55	13.5	13.5	13.5	68	4.9	2	6	225	0.00	30.008 
23:00	13.5	13.5	13.5	68	4.9	2	4	248	0.00	30.013 
23:05	13.5	13.5	13.5	68	4.9	3	5	270	0.00	30.013 
23:10	13.5	13.5	13.5	67	4.6	3	5	248	0.00	30.013 
23:15	13.5	13.5	13.5	67	4.6	2	4	248	0.00	30.020 
23:20	13.1	6.2	13.1	66	3.9	4	9	270	0.00	30.020 
23:25	12.9	12.9	12.9	66	3.7	3	6	270	0.00	30.020 
23:30	12.8	12.8	12.8	65	3.3	2	4	292	0.00	30.022 
23:35	12.8	12.8	12.8	65	3.3	3	6	248	0.00	30.022 
23:40	12.6	12.6	12.6	64	2.8	3	6	270	0.00	30.022 
23:45	12.6	12.6	12.6	65	3.1	3	6	270	0.00	30.034 
23:50	12.4	5.4	12.4	64	2.6	4	8	270	0.00	30.034 
23:55	12.3	5.3	12.3	64	2.5	4	8	270	0.00	30.034 

CoCoRaHS
IN-AL-39
A2 Web Hosting
Creative Commons License
GoDaddy
search engine by freefind advanced

loaded 2018-11-20 14:48:48 • last modified 2010-11-18 10:43:29
Privacy PolicyDisclaimer
• wx.awcolley.com is powered by PmWiki v.2002016 •
• all content (unless otherwise noted) © 2018 A W Colley